Time;durP1;ratioP1;P1;durP2;ratioP2;P2;SDS_P1;SDS_P2;PMS_P1;PMS_P2;Temp;Humidity;BMP_temperature;BMP_pressure;BME280_temperature;BME280_humidity;BME280_pressure;Samples;Min_cycle;Max_cycle;Signal;HPM_P1;HPM_P2
2021/07/22 18:54:15;;;;;;;;;;;;;;;;;;2054320;28;1632;-74
2021/07/22 18:55:16;;;;;;;;;;;;;;;;;;2055575;28;1757;-79
2021/07/22 18:56:19;;;;;;;;;;;;;;;;;;2048506;28;1440;-79
2021/07/22 18:57:20;;;;;;;;;;;;;;;;;;2050623;28;772;-77
2021/07/22 18:58:21;;;;;;;;;;;;;;;;;;2049953;28;856;-77
2021/07/22 18:59:23;;;;;;;;;;;;;;;;;;2049681;29;882;-77
2021/07/22 19:00:57;;;;;;;;;;;;;;;;;;2123506;27;1650;-79
2021/07/22 19:01:58;;;;;;;;;;;;;;;;;;2123938;28;1315;-80
2021/07/22 19:03:00;;;;;;;;;;;;;;;;;;2124216;28;841;-79
2021/07/22 19:04:03;;;;;;;;;;;;;;;;;;2123602;28;1180;-79
2021/07/22 19:05:06;;;;;;;;;;;;;;;;;;2123754;28;943;-81
2021/07/22 19:06:07;;;;;;;;;;;;;;;;;;2124141;28;975;-79
2021/07/22 19:07:09;;;;;;;;;;;;;;;;;;2124148;28;910;-80
2021/07/22 19:08:10;;;;;;;;;;;;;;;;;;2124048;28;798;-82
2021/07/22 19:09:11;;;;;;;;;;;;;;;;;;2123407;28;1208;-78
2021/07/22 19:10:12;;;;;;;;;;;;;;;;;;2123483;28;879;-78
2021/07/22 19:11:14;;;;;;;;;;;;;;;;;;2124229;27;936;-80
2021/07/22 19:12:15;;;;;;;;;;;;;;;;;;2124131;28;836;-80
2021/07/22 19:13:17;;;;;;;;;;;;;;;;;;2124131;27;813;-80
2021/07/22 19:14:18;;;;;;;;;;;;;;;;;;2124097;27;845;-80
2021/07/22 19:15:21;;;;;;;;;;;;;;;;;;2124265;28;921;-80
2021/07/22 19:16:24;;;;;;;;;;;;;;;;;;2124208;28;845;-80
2021/07/22 19:17:26;;;;;;;;;;;;;;;;;;2120721;27;1194;-79
2021/07/22 19:18:27;;;;;;;;;;;;;;;;;;2124047;28;865;-80
2021/07/22 19:19:29;;;;;;;;;;;;;;;;;;2124210;28;876;-79
2021/07/22 19:20:29;;;;;;;;;;;;;;;;;;2124151;28;1941;-81
2021/07/22 19:21:31;;;;;;;;;;;;;;;;;;2124165;28;952;-69
2021/07/22 19:22:33;;;;;;;;;;;;;;;;;;2124055;27;809;-71
2021/07/22 19:23:35;;;;;;;;;;;;;;;;;;2124022;28;864;-70
2021/07/22 19:24:36;;;;;;;;;;;;;;;;;;2124183;27;903;-68
2021/07/22 19:25:38;;;;;;;;;;;;;;;;;;2124032;28;1087;-69
2021/07/22 19:26:39;;;;;;;;;;;;;;;;;;2124062;27;1009;-71
2021/07/22 19:27:41;;;;;;;;;;;;;;;;;;2123173;28;1286;-70
2021/07/22 19:28:41;;;;;;;;;;;;;;;;;;2123346;28;837;-69
2021/07/22 19:29:46;;;;;;;;;;;;;;;;;;2123879;28;889;-70
2021/07/22 19:30:46;;;;;;;;;;;;;;;;;;2123860;28;897;-70
2021/07/22 19:31:50;;;;;;;;;;;;;;;;;;2123965;27;888;-69
2021/07/22 19:32:50;;;;;;;;;;;;;;;;;;2123149;28;1498;-69
2021/07/22 19:33:52;;;;;;;;;;;;;;;;;;2123265;28;920;-70
2021/07/22 19:34:53;;;;;;;;;;;;;;;;;;2124085;27;936;-70
2021/07/22 19:35:55;;;;;;;;;;;;;;;;;;2123788;28;857;-68
2021/07/22 19:36:56;;;;;;;;;;;;;;;;;;2123909;28;881;-69
2021/07/22 19:37:59;;;;;;;;;;;;;;;;;;2123849;27;885;-69
2021/07/22 19:38:59;;;;;;;;;;;;;;;;;;2123134;28;854;-69
2021/07/22 19:40:01;;;;;;;;;;;;;;;;;;2123431;28;892;-68
2021/07/22 19:41:05;;;;;;;;;;;;;;;;;;2120380;27;1913;-73
2021/07/22 19:42:08;;;;;;;;;;;;;;;;;;2119950;28;1372;-70
2021/07/22 19:43:08;;;;;;;;;;;;;;;;;;2117922;28;1333;-68
2021/07/22 19:44:10;;;;;;;;;;;;;;;;;;2115257;28;814;-70
2021/07/22 19:45:12;;;;;;;;;;;;;;;;;;2115372;28;967;-71
2021/07/22 19:46:14;;;;;;;;;;;;;;;;;;2118795;28;1334;-72
2021/07/22 19:47:17;;;;;;;;;;;;;;;;;;2119409;27;1337;-71
2021/07/22 19:49:28;;;;;;;;;;;;;;;;;;2123830;27;1385;-74
2021/07/22 19:50:29;;;;;;;;;;;;;;;;;;2121340;27;1353;-75
2021/07/22 19:51:32;;;;;;;;;;;;;;;;;;2117528;28;1326;-76
2021/07/22 19:52:32;;;;;;;;;;;;;;;;;;2115019;28;857;-74
2021/07/22 19:53:34;;;;;;;;;;;;;;;;;;2115591;28;872;-76
2021/07/22 19:54:35;;;;;;;;;;;;;;;;;;2115615;28;810;-78
2021/07/22 19:55:37;;;;;;;;;;;;;;;;;;2115569;28;872;-76
2021/07/22 19:56:38;;;;;;;;;;;;;;;;;;2115702;28;818;-75
2021/07/22 19:57:39;;;;;;;;;;;;;;;;;;2115645;28;881;-74
2021/07/22 19:58:40;;;;;;;;;;;;;;;;;;2115946;28;1136;-74
2021/07/22 19:59:42;;;;;;;;;;;;;;;;;;2115575;28;786;-75
2021/07/22 20:00:43;;;;;;;;;;;;;;;;;;2115800;28;905;-74
2021/07/22 20:01:45;;;;;;;;;;;;;;;;;;2114994;28;888;-74
2021/07/22 20:02:47;;;;;;;;;;;;;;;;;;2114598;28;1783;-75
2021/07/22 20:03:49;;;;;;;;;;;;;;;;;;2111197;28;1312;-76
2021/07/22 20:04:51;;;;;;;;;;;;;;;;;;2111008;28;853;-77
2021/07/22 20:05:53;;;;;;;;;;;;;;;;;;2107919;28;1321;-76
2021/07/22 20:06:54;;;;;;;;;;;;;;;;;;2108693;28;1944;-77
2021/07/22 20:07:55;;;;;;;;;;;;;;;;;;2108509;28;1748;-77
2021/07/22 20:08:57;;;;;;;;;;;;;;;;;;2107874;28;1913;-75
2021/07/22 20:09:59;;;;;;;;;;;;;;;;;;2107236;28;1887;-77
2021/07/22 20:11:07;;;;;;;;;;;;;;;;;;2108846;28;1845;-72
2021/07/22 20:12:10;;;;;;;;;;;;;;;;;;2108786;28;1654;-79
2021/07/22 20:13:11;;;;;;;;;;;;;;;;;;2108680;28;1613;-76
2021/07/22 20:14:12;;;;;;;;;;;;;;;;;;2109150;28;1780;-75
2021/07/22 20:15:14;;;;;;;;;;;;;;;;;;2109236;28;1753;-75
2021/07/22 20:16:15;;;;;;;;;;;;;;;;;;2106927;28;1815;-75
2021/07/22 20:17:16;;;;;;;;;;;;;;;;;;2107280;28;1800;-73
2021/07/22 20:18:18;;;;;;;;;;;;;;;;;;2108384;28;1804;-74
2021/07/22 20:19:18;;;;;;;;;;;;;;;;;;2109237;28;1891;-74
2021/07/22 20:20:22;;;;;;;;;;;;;;;;;;2109042;28;1887;-73
2021/07/22 20:21:22;;;;;;;;;;;;;;;;;;2104850;28;1816;-74
2021/07/22 20:22:24;;;;;;;;;;;;;;;;;;2106110;28;1745;-75
2021/07/22 20:23:25;;;;;;;;;;;;;;;;;;2109250;28;1944;-76
2021/07/22 20:24:27;;;;;;;;;;;;;;;;;;2108746;28;2003;-83
2021/07/22 20:25:27;;;;;;;;;;;;;;;;;;2109219;28;2075;-76
2021/07/22 20:26:29;;;;;;;;;;;;;;;;;;2108189;28;2002;-75
2021/07/22 20:27:30;;;;;;;;;;;;;;;;;;2108991;28;1959;-75
2021/07/22 20:28:31;;;;;;;;;;;;;;;;;;2108596;28;1939;-77
2021/07/22 20:29:34;;;;;;;;;;;;;;;;;;2108387;28;2126;-75
2021/07/22 20:30:35;;;;;;;;;;;;;;;;;;2108484;28;1935;-77
2021/07/22 20:31:36;;;;;;;;;;;;;;;;;;2109398;28;1641;-76
2021/07/22 20:32:37;;;;;;;;;;;;;;;;;;2110716;28;1630;-75
2021/07/22 20:33:39;;;;;;;;;;;;;;;;;;2108715;28;1607;-76
2021/07/22 20:34:39;;;;;;;;;;;;;;;;;;2109777;28;1768;-74
2021/07/22 20:35:43;;;;;;;;;;;;;;;;;;2107622;28;1745;-75
2021/07/22 20:36:44;;;;;;;;;;;;;;;;;;2109897;28;1808;-77
2021/07/22 20:37:46;;;;;;;;;;;;;;;;;;2108079;28;1736;-75
2021/07/22 20:38:46;;;;;;;;;;;;;;;;;;2108336;28;1888;-76
2021/07/22 20:39:48;;;;;;;;;;;;;;;;;;2108664;28;1829;-75
2021/07/22 20:40:49;;;;;;;;;;;;;;;;;;2107942;28;1991;-76
2021/07/22 20:41:50;;;;;;;;;;;;;;;;;;2108420;28;1947;-76
2021/07/22 20:42:51;;;;;;;;;;;;;;;;;;2108482;28;1958;-75
2021/07/22 20:43:53;;;;;;;;;;;;;;;;;;2107815;28;2026;-73
2021/07/22 20:44:53;;;;;;;;;;;;;;;;;;2106219;28;1622;-75
2021/07/22 20:45:55;;;;;;;;;;;;;;;;;;2108214;28;1825;-74
2021/07/22 20:46:57;;;;;;;;;;;;;;;;;;2108688;28;1670;-76
2021/07/22 20:47:59;;;;;;;;;;;;;;;;;;2108407;28;1635;-77
2021/07/22 20:49:01;;;;;;;;;;;;;;;;;;2106815;28;1980;-75
2021/07/22 20:50:03;;;;;;;;;;;;;;;;;;2107857;28;1745;-75
2021/07/22 20:51:05;;;;;;;;;;;;;;;;;;2108501;28;2167;-75
2021/07/22 20:52:07;;;;;;;;;;;;;;;;;;2108755;28;1924;-75
2021/07/22 20:53:09;;;;;;;;;;;;;;;;;;2108471;28;1880;-74
2021/07/22 20:54:11;;;;;;;;;;;;;;;;;;2108263;28;1932;-74
2021/07/22 20:55:11;;;;;;;;;;;;;;;;;;2108286;28;2148;-74
2021/07/22 20:56:13;;;;;;;;;;;;;;;;;;2107886;28;1963;-74
2021/07/22 20:57:15;;;;;;;;;;;;;;;;;;2109600;28;1839;-75
2021/07/22 20:58:17;;;;;;;;;;;;;;;;;;2108400;28;2001;-74
2021/07/22 20:59:17;;;;;;;;;;;;;;;;;;2105188;28;1910;-73
2021/07/22 21:00:20;;;;;;;;;;;;;;;;;;2104005;28;1852;-74
2021/07/22 21:01:21;;;;;;;;;;;;;;;;;;2101334;28;1927;-75
2021/07/22 21:02:22;;;;;;;;;;;;;;;;;;2101791;28;1958;-74
2021/07/22 21:03:23;;;;;;;;;;;;;;;;;;2102956;28;1936;-73
2021/07/22 21:04:25;;;;;;;;;;;;;;;;;;2102144;28;1678;-73
2021/07/22 21:05:25;;;;;;;;;;;;;;;;;;2104636;28;1899;-75
2021/07/22 21:06:29;;;;;;;;;;;;;;;;;;2109290;28;822;-75
2021/07/22 21:07:29;;;;;;;;;;;;;;;;;;2108741;28;941;-75
2021/07/22 21:08:31;;;;;;;;;;;;;;;;;;2108998;28;870;-75
2021/07/22 21:09:32;;;;;;;;;;;;;;;;;;2108526;28;1902;-73
2021/07/22 21:10:34;;;;;;;;;;;;;;;;;;2109198;28;897;-74
2021/07/22 21:11:35;;;;;;;;;;;;;;;;;;2109582;28;857;-74
2021/07/22 21:12:37;;;;;;;;;;;;;;;;;;2108652;28;917;-74
2021/07/22 21:13:38;;;;;;;;;;;;;;;;;;2108790;28;875;-73
2021/07/22 21:14:43;;;;;;;;;;;;;;;;;;2109354;28;932;-74
2021/07/22 21:15:44;;;;;;;;;;;;;;;;;;2109384;28;898;-74
2021/07/22 21:16:46;;;;;;;;;;;;;;;;;;2109691;28;905;-74
2021/07/22 21:17:46;;;;;;;;;;;;;;;;;;2111564;28;1199;-74
2021/07/22 21:18:49;;;;;;;;;;;;;;;;;;2108793;28;1439;-73
2021/07/22 21:19:50;;;;;;;;;;;;;;;;;;2108670;28;1380;-73
2021/07/22 21:20:53;;;;;;;;;;;;;;;;;;2108716;28;1427;-74
2021/07/22 21:21:55;;;;;;;;;;;;;;;;;;2107966;28;1412;-75
2021/07/22 21:22:57;;;;;;;;;;;;;;;;;;2108131;28;1412;-74
2021/07/22 21:23:58;;;;;;;;;;;;;;;;;;2107983;28;1428;-74
2021/07/22 21:25:00;;;;;;;;;;;;;;;;;;2108062;28;1404;-74
2021/07/22 21:26:05;;;;;;;;;;;;;;;;;;2108601;28;1389;-76
2021/07/22 21:27:07;;;;;;;;;;;;;;;;;;2108667;28;1369;-74
2021/07/22 21:28:08;;;;;;;;;;;;;;;;;;2108633;28;1503;-74
2021/07/22 21:29:10;;;;;;;;;;;;;;;;;;2108580;28;1906;-74
2021/07/22 21:30:11;;;;;;;;;;;;;;;;;;2108632;28;1377;-74
2021/07/22 21:31:13;;;;;;;;;;;;;;;;;;2108613;28;1473;-74
2021/07/22 21:32:13;;;;;;;;;;;;;;;;;;2107899;28;1397;-75
2021/07/22 21:33:15;;;;;;;;;;;;;;;;;;2107891;28;1369;-78
2021/07/22 21:34:16;;;;;;;;;;;;;;;;;;2107982;28;1436;-75
2021/07/22 21:35:17;;;;;;;;;;;;;;;;;;2108583;28;1436;-73
2021/07/22 21:36:18;;;;;;;;;;;;;;;;;;2108517;28;1341;-74
2021/07/22 21:37:21;;;;;;;;;;;;;;;;;;2108557;28;1423;-77
2021/07/22 21:38:22;;;;;;;;;;;;;;;;;;2108617;28;1380;-74
2021/07/22 21:39:24;;;;;;;;;;;;;;;;;;2108605;28;1332;-74
2021/07/22 21:40:25;;;;;;;;;;;;;;;;;;2108509;28;1495;-74
2021/07/22 21:41:26;;;;;;;;;;;;;;;;;;2108534;28;1376;-74
2021/07/22 21:42:30;;;;;;;;;;;;;;;;;;2107822;28;1388;-74
2021/07/22 21:43:31;;;;;;;;;;;;;;;;;;2107959;28;1439;-75
2021/07/22 21:44:32;;;;;;;;;;;;;;;;;;2107828;28;1424;-76
2021/07/22 21:45:34;;;;;;;;;;;;;;;;;;2112431;28;1451;-74
2021/07/22 21:46:34;;;;;;;;;;;;;;;;;;2120437;27;1419;-77
2021/07/22 21:47:36;;;;;;;;;;;;;;;;;;2108503;28;1408;-75
2021/07/22 21:48:37;;;;;;;;;;;;;;;;;;2108343;28;1407;-73
2021/07/22 21:49:39;;;;;;;;;;;;;;;;;;2108404;28;1913;-73
2021/07/22 21:50:40;;;;;;;;;;;;;;;;;;2108449;28;1400;-74
2021/07/22 21:51:41;;;;;;;;;;;;;;;;;;2108453;28;1388;-75
2021/07/22 21:52:43;;;;;;;;;;;;;;;;;;2108441;28;1348;-74
2021/07/22 21:53:45;;;;;;;;;;;;;;;;;;2108411;28;1614;-79
2021/07/22 21:54:46;;;;;;;;;;;;;;;;;;2107807;28;1642;-75
2021/07/22 21:55:49;;;;;;;;;;;;;;;;;;2107864;28;1475;-74
2021/07/22 21:56:49;;;;;;;;;;;;;;;;;;2108418;28;1388;-75
2021/07/22 21:57:51;;;;;;;;;;;;;;;;;;2108576;28;1345;-75
2021/07/22 21:58:52;;;;;;;;;;;;;;;;;;2108494;28;1459;-74
2021/07/22 21:59:53;;;;;;;;;;;;;;;;;;2108507;28;1349;-74
2021/07/22 22:00:54;;;;;;;;;;;;;;;;;;2107612;28;1353;-74
2021/07/22 22:01:56;;;;;;;;;;;;;;;;;;2107840;28;1403;-74
2021/07/22 22:02:57;;;;;;;;;;;;;;;;;;2108352;28;1360;-75
2021/07/22 22:03:58;;;;;;;;;;;;;;;;;;2107745;28;1405;-74
2021/07/22 22:04:59;;;;;;;;;;;;;;;;;;2108390;28;960;-75
2021/07/22 22:06:04;;;;;;;;;;;;;;;;;;2109043;28;916;-74
2021/07/22 22:07:05;;;;;;;;;;;;;;;;;;2108267;28;1206;-79
2021/07/22 22:08:08;;;;;;;;;;;;;;;;;;2108348;28;807;-76
2021/07/22 22:09:09;;;;;;;;;;;;;;;;;;2108939;28;877;-77
2021/07/22 22:10:11;;;;;;;;;;;;;;;;;;2108917;28;1910;-77
2021/07/22 22:11:12;;;;;;;;;;;;;;;;;;2108850;28;849;-77
2021/07/22 22:12:14;;;;;;;;;;;;;;;;;;2108119;28;949;-76
2021/07/22 22:13:15;;;;;;;;;;;;;;;;;;2108864;28;915;-76
2021/07/22 22:14:16;;;;;;;;;;;;;;;;;;2108216;28;1445;-76
2021/07/22 22:15:17;;;;;;;;;;;;;;;;;;2099822;28;1588;-76
2021/07/22 22:16:20;;;;;;;;;;;;;;;;;;2099779;28;1635;-78
2021/07/22 22:17:20;;;;;;;;;;;;;;;;;;2099972;28;1225;-79
2021/07/22 22:18:22;;;;;;;;;;;;;;;;;;2108154;28;1345;-79
2021/07/22 22:19:23;;;;;;;;;;;;;;;;;;2108209;28;877;-79
2021/07/22 22:20:25;;;;;;;;;;;;;;;;;;2108803;28;882;-78
2021/07/22 22:21:25;;;;;;;;;;;;;;;;;;2108718;28;913;-79
2021/07/22 22:22:27;;;;;;;;;;;;;;;;;;2108026;28;1234;-78
2021/07/22 22:23:29;;;;;;;;;;;;;;;;;;2108393;28;1018;-76
2021/07/22 22:24:31;;;;;;;;;;;;;;;;;;2108766;28;949;-80
2021/07/22 22:25:32;;;;;;;;;;;;;;;;;;2108775;28;937;-76
2021/07/22 22:26:34;;;;;;;;;;;;;;;;;;2108897;28;933;-79
2021/07/22 22:27:35;;;;;;;;;;;;;;;;;;2108902;28;810;-76
2021/07/22 22:28:37;;;;;;;;;;;;;;;;;;2108840;28;905;-76
2021/07/22 22:29:39;;;;;;;;;;;;;;;;;;2108625;28;1905;-80
2021/07/22 22:30:41;;;;;;;;;;;;;;;;;;2108754;28;862;-76
2021/07/22 22:31:42;;;;;;;;;;;;;;;;;;2107993;28;1297;-78
2021/07/22 22:32:43;;;;;;;;;;;;;;;;;;2108152;28;956;-75
2021/07/22 22:33:44;;;;;;;;;;;;;;;;;;2108705;28;882;-77
2021/07/22 22:34:46;;;;;;;;;;;;;;;;;;2108064;28;1266;-76
2021/07/22 22:35:47;;;;;;;;;;;;;;;;;;2108119;28;893;-77
2021/07/22 22:36:48;;;;;;;;;;;;;;;;;;2108018;28;1189;-78
2021/07/22 22:37:49;;;;;;;;;;;;;;;;;;2108082;28;904;-74
2021/07/22 22:38:52;;;;;;;;;;;;;;;;;;2108658;28;830;-79
2021/07/22 22:39:53;;;;;;;;;;;;;;;;;;2108771;28;1095;-77
2021/07/22 22:40:55;;;;;;;;;;;;;;;;;;2108795;28;786;-76
2021/07/22 22:41:56;;;;;;;;;;;;;;;;;;2107941;28;1455;-78
2021/07/22 22:42:58;;;;;;;;;;;;;;;;;;2108138;28;937;-77
2021/07/22 22:43:58;;;;;;;;;;;;;;;;;;2108706;28;849;-75
2021/07/22 22:45:00;;;;;;;;;;;;;;;;;;2108853;28;857;-77
2021/07/22 22:46:01;;;;;;;;;;;;;;;;;;2108597;28;871;-76
2021/07/22 22:47:03;;;;;;;;;;;;;;;;;;2108596;28;933;-77
2021/07/22 22:48:04;;;;;;;;;;;;;;;;;;2108008;28;1579;-77
2021/07/22 22:49:09;;;;;;;;;;;;;;;;;;2099508;28;1784;-77
2021/07/22 22:50:10;;;;;;;;;;;;;;;;;;2107929;28;1906;-78
2021/07/22 22:51:11;;;;;;;;;;;;;;;;;;2108693;28;901;-76
2021/07/22 22:52:12;;;;;;;;;;;;;;;;;;2108605;28;870;-76
2021/07/22 22:53:14;;;;;;;;;;;;;;;;;;2107844;28;897;-75
2021/07/22 22:54:16;;;;;;;;;;;;;;;;;;2107964;28;850;-76
2021/07/22 22:55:18;;;;;;;;;;;;;;;;;;2108470;28;787;-76
2021/07/22 22:56:18;;;;;;;;;;;;;;;;;;2108651;28;848;-75
2021/07/22 22:57:20;;;;;;;;;;;;;;;;;;2108588;28;885;-76
2021/07/22 22:58:21;;;;;;;;;;;;;;;;;;2107802;28;850;-76
2021/07/22 22:59:23;;;;;;;;;;;;;;;;;;2108030;28;949;-78
2021/07/22 23:00:23;;;;;;;;;;;;;;;;;;2108537;28;919;-74
2021/07/22 23:01:25;;;;;;;;;;;;;;;;;;2108521;28;908;-75
2021/07/22 23:02:26;;;;;;;;;;;;;;;;;;2108583;28;845;-77
2021/07/22 23:03:28;;;;;;;;;;;;;;;;;;2108512;28;921;-77
2021/07/22 23:04:29;;;;;;;;;;;;;;;;;;2108437;28;832;-78
2021/07/22 23:05:31;;;;;;;;;;;;;;;;;;2108620;28;882;-76
2021/07/22 23:06:31;;;;;;;;;;;;;;;;;;2108403;28;857;-75
2021/07/22 23:07:33;;;;;;;;;;;;;;;;;;2108586;28;909;-78
2021/07/22 23:08:34;;;;;;;;;;;;;;;;;;2108549;28;907;-74
2021/07/22 23:09:38;;;;;;;;;;;;;;;;;;2108657;28;975;-77
2021/07/22 23:10:39;;;;;;;;;;;;;;;;;;2107782;28;1162;-78
2021/07/22 23:11:41;;;;;;;;;;;;;;;;;;2108020;28;806;-77
2021/07/22 23:12:41;;;;;;;;;;;;;;;;;;2108517;28;917;-75
2021/07/22 23:13:43;;;;;;;;;;;;;;;;;;2108529;28;826;-75
2021/07/22 23:14:44;;;;;;;;;;;;;;;;;;2107645;28;1200;-76
2021/07/22 23:15:46;;;;;;;;;;;;;;;;;;2107808;28;1288;-77
2021/07/22 23:16:47;;;;;;;;;;;;;;;;;;2108448;28;929;-76
2021/07/22 23:17:49;;;;;;;;;;;;;;;;;;2108335;28;791;-74
2021/07/22 23:18:49;;;;;;;;;;;;;;;;;;2108387;28;797;-76
2021/07/22 23:19:51;;;;;;;;;;;;;;;;;;2108465;28;894;-75
2021/07/22 23:20:52;;;;;;;;;;;;;;;;;;2108383;28;854;-78
2021/07/22 23:21:54;;;;;;;;;;;;;;;;;;2107710;28;901;-78
2021/07/22 23:22:55;;;;;;;;;;;;;;;;;;2107903;28;940;-76
2021/07/22 23:23:56;;;;;;;;;;;;;;;;;;2108251;28;866;-77
2021/07/22 23:24:59;;;;;;;;;;;;;;;;;;2108292;28;909;-78
2021/07/22 23:26:01;;;;;;;;;;;;;;;;;;2108256;28;1051;-77
2021/07/22 23:27:02;;;;;;;;;;;;;;;;;;2108300;28;822;-75
2021/07/22 23:28:04;;;;;;;;;;;;;;;;;;2108486;28;811;-78
2021/07/22 23:29:05;;;;;;;;;;;;;;;;;;2107641;28;1468;-77
2021/07/22 23:30:07;;;;;;;;;;;;;;;;;;2107695;28;1972;-78
2021/07/22 23:31:08;;;;;;;;;;;;;;;;;;2108327;28;925;-76
2021/07/22 23:32:10;;;;;;;;;;;;;;;;;;2107545;28;917;-74
2021/07/22 23:33:10;;;;;;;;;;;;;;;;;;2099289;28;1175;-73
2021/07/22 23:34:12;;;;;;;;;;;;;;;;;;2107706;28;818;-74
2021/07/22 23:35:13;;;;;;;;;;;;;;;;;;2108597;28;893;-75
2021/07/22 23:36:15;;;;;;;;;;;;;;;;;;2108226;28;818;-75
2021/07/22 23:37:15;;;;;;;;;;;;;;;;;;2108380;28;846;-74
2021/07/22 23:38:17;;;;;;;;;;;;;;;;;;2108209;28;941;-73
2021/07/22 23:39:18;;;;;;;;;;;;;;;;;;2108185;28;795;-73
2021/07/22 23:40:21;;;;;;;;;;;;;;;;;;2108351;28;921;-73
2021/07/22 23:41:22;;;;;;;;;;;;;;;;;;2108255;28;765;-73
2021/07/22 23:42:25;;;;;;;;;;;;;;;;;;2108191;28;875;-74
2021/07/22 23:43:27;;;;;;;;;;;;;;;;;;2108323;28;799;-73
2021/07/22 23:44:29;;;;;;;;;;;;;;;;;;2108379;28;933;-74
2021/07/22 23:45:30;;;;;;;;;;;;;;;;;;2108190;28;774;-74
2021/07/22 23:46:32;;;;;;;;;;;;;;;;;;2108235;28;920;-73
2021/07/22 23:47:33;;;;;;;;;;;;;;;;;;2108239;28;893;-73
2021/07/22 23:48:34;;;;;;;;;;;;;;;;;;2108157;28;1195;-73
2021/07/22 23:49:35;;;;;;;;;;;;;;;;;;2108365;28;932;-73
2021/07/22 23:50:37;;;;;;;;;;;;;;;;;;2108092;28;1909;-73
2021/07/22 23:51:38;;;;;;;;;;;;;;;;;;2107508;28;1634;-75
2021/07/22 23:52:40;;;;;;;;;;;;;;;;;;2107597;28;1002;-73
2021/07/22 23:53:40;;;;;;;;;;;;;;;;;;2108308;28;849;-73
2021/07/22 23:54:42;;;;;;;;;;;;;;;;;;2107512;28;1114;-73
2021/07/22 23:55:44;;;;;;;;;;;;;;;;;;2107576;28;889;-74
2021/07/22 23:56:46;;;;;;;;;;;;;;;;;;2107518;28;1190;-73
2021/07/22 23:57:46;;;;;;;;;;;;;;;;;;2107569;28;830;-73
2021/07/22 23:58:48;;;;;;;;;;;;;;;;;;2107503;28;1204;-74
2021/07/22 23:59:49;;;;;;;;;;;;;;;;;;2107601;28;839;-74
